createdAt,value
2018-01-20T00:00:29.080Z,98.10
2018-01-20T00:02:57.263Z,98.00
2018-01-20T00:05:25.527Z,97.80
2018-01-20T00:07:53.598Z,97.90
2018-01-20T00:13:27.660Z,98.10
2018-01-20T00:15:56.705Z,98.10
2018-01-20T00:18:24.825Z,98.00
2018-01-20T00:20:52.774Z,97.60
2018-01-20T00:23:20.908Z,97.70
2018-01-20T00:25:54.477Z,97.90
2018-01-20T00:28:23.201Z,98.90
2018-01-20T00:30:51.396Z,98.80
2018-01-20T00:33:19.397Z,99.00
2018-01-20T00:35:47.647Z,98.80
2018-01-20T00:38:15.822Z,99.00
2018-01-20T00:40:43.689Z,98.70
2018-01-20T00:43:11.665Z,98.80
2018-01-20T00:45:39.649Z,98.70
2018-01-20T00:48:07.606Z,98.50
2018-01-20T00:50:35.745Z,98.30
2018-01-20T00:53:03.638Z,98.50
2018-01-20T00:55:31.551Z,98.40
2018-01-20T00:58:00.812Z,98.10
2018-01-20T01:00:28.772Z,98.10
2018-01-20T01:02:56.750Z,98.20
2018-01-20T01:05:24.816Z,98.10
2018-01-20T01:07:52.752Z,98.20
2018-01-20T01:10:20.814Z,98.30
2018-01-20T01:12:49.355Z,98.40
2018-01-20T01:15:18.844Z,98.70
2018-01-20T01:17:46.691Z,98.60
2018-01-20T01:20:14.610Z,98.70
2018-01-20T01:22:43.202Z,98.60
2018-01-20T01:25:11.761Z,98.60
2018-01-20T01:27:39.659Z,98.60
2018-01-20T01:30:08.249Z,98.80
2018-01-20T01:32:36.065Z,98.70
2018-01-20T01:35:04.017Z,98.70
2018-01-20T01:37:31.814Z,98.70
2018-01-20T01:39:59.668Z,98.70
2018-01-20T01:42:27.573Z,98.80
2018-01-20T01:44:56.134Z,99.10
2018-01-20T01:47:24.053Z,99.10
2018-01-20T01:49:51.997Z,99.20
2018-01-20T01:52:20.540Z,98.60
2018-01-20T01:54:48.364Z,98.60
2018-01-20T01:57:16.333Z,98.70
2018-01-20T01:59:44.213Z,99.00
2018-01-20T02:02:12.092Z,98.90
2018-01-20T02:04:39.982Z,99.00
2018-01-20T02:07:07.821Z,98.70
2018-01-20T02:09:35.714Z,98.40
2018-01-20T02:12:03.727Z,98.40
2018-01-20T02:14:31.946Z,98.50
2018-01-20T02:17:00.031Z,98.40
2018-01-20T02:19:28.400Z,98.50
2018-01-20T02:21:56.369Z,98.60
2018-01-20T02:26:55.275Z,98.40
2018-01-20T02:29:23.316Z,98.30
2018-01-20T02:31:51.266Z,98.50
2018-01-20T02:34:19.240Z,98.60
2018-01-20T02:36:47.155Z,98.60
2018-01-20T02:39:15.029Z,98.60
2018-01-20T02:41:43.091Z,98.40
2018-01-20T02:44:10.915Z,98.20
2018-01-20T02:46:38.841Z,97.70
2018-01-20T02:49:06.796Z,97.80
2018-01-20T02:51:34.763Z,97.30
2018-01-20T02:54:02.630Z,97.20
2018-01-20T02:56:30.713Z,97.60
2018-01-20T02:58:58.828Z,97.60
2018-01-20T03:01:26.865Z,97.50
2018-01-20T03:03:55.033Z,97.60
2018-01-20T03:06:22.887Z,97.70
2018-01-20T03:08:50.839Z,97.80
2018-01-20T03:11:19.029Z,97.70
2018-01-20T03:13:47.000Z,97.70
2018-01-20T03:16:15.734Z,97.50
2018-01-20T03:18:44.608Z,97.70
2018-01-20T03:21:13.262Z,97.80
2018-01-20T03:23:41.210Z,97.80
2018-01-20T03:26:09.202Z,97.90
2018-01-20T03:28:37.186Z,98.10
2018-01-20T03:31:05.928Z,98.20
2018-01-20T03:33:33.824Z,98.30
2018-01-20T03:36:01.660Z,98.40
2018-01-20T03:38:29.635Z,98.60
2018-01-20T03:40:57.554Z,98.40
2018-01-20T03:43:25.861Z,98.40
2018-01-20T03:45:53.845Z,98.30
2018-01-20T03:48:21.846Z,98.10
2018-01-20T03:50:49.819Z,98.30
2018-01-20T03:53:17.764Z,98.40
2018-01-20T03:55:45.832Z,98.10
2018-01-20T03:58:13.826Z,98.40
2018-01-20T04:00:41.761Z,98.40
2018-01-20T04:03:09.838Z,98.40
2018-01-20T04:05:37.912Z,98.40
2018-01-20T04:08:05.760Z,98.40
2018-01-20T04:10:33.745Z,98.60
2018-01-20T04:13:01.748Z,98.60
2018-01-20T04:15:29.713Z,98.70
2018-01-20T04:17:57.684Z,98.60
2018-01-20T04:20:25.755Z,98.50
2018-01-20T04:22:53.688Z,98.50
2018-01-20T04:25:21.687Z,98.60
2018-01-20T04:27:49.766Z,98.30
2018-01-20T04:30:17.700Z,98.20
2018-01-20T04:32:45.554Z,98.20
2018-01-20T04:35:13.527Z,98.10
2018-01-20T04:37:41.605Z,98.10
2018-01-20T04:40:09.579Z,98.10
2018-01-20T04:42:37.548Z,98.00
2018-01-20T04:45:05.548Z,97.70
2018-01-20T04:47:35.514Z,97.80
2018-01-20T04:50:03.319Z,98.00
2018-01-20T04:52:31.094Z,97.90
2018-01-20T04:54:59.783Z,98.20
2018-01-20T04:57:27.628Z,98.20
2018-01-20T04:59:55.457Z,98.10
2018-01-20T05:02:24.188Z,98.00
2018-01-20T05:04:52.274Z,98.00
2018-01-20T05:07:20.242Z,98.00
2018-01-20T05:09:48.519Z,98.00
2018-01-20T05:12:16.487Z,98.10
2018-01-20T05:14:44.627Z,98.10
2018-01-20T05:17:12.593Z,98.00
2018-01-20T05:19:40.607Z,98.00
2018-01-20T05:22:08.467Z,98.20
2018-01-20T05:24:36.744Z,98.50
2018-01-20T05:27:04.712Z,98.60
2018-01-20T05:29:32.690Z,98.60
2018-01-20T05:32:00.720Z,98.70
2018-01-20T05:34:28.757Z,98.70
2018-01-20T05:36:57.408Z,99.20
2018-01-20T05:39:25.557Z,99.20
2018-01-20T05:41:53.640Z,99.30
2018-01-20T05:44:21.626Z,99.10
2018-01-20T05:46:49.800Z,98.90
2018-01-20T05:49:18.075Z,98.80
2018-01-20T05:51:46.327Z,98.70
2018-01-20T05:54:14.305Z,99.00
2018-01-20T05:56:42.187Z,98.80
2018-01-20T05:59:10.400Z,98.80
2018-01-20T06:01:39.428Z,98.70
2018-01-20T06:04:07.323Z,98.70
2018-01-20T06:06:35.292Z,98.60
2018-01-20T06:09:03.319Z,98.60
2018-01-20T06:11:31.230Z,98.50
2018-01-20T06:13:59.304Z,98.70
2018-01-20T06:16:27.393Z,98.80
2018-01-20T06:18:55.344Z,98.70
2018-01-20T06:21:23.484Z,98.80
2018-01-20T06:23:51.794Z,98.80
2018-01-20T06:26:19.845Z,98.70
2018-01-20T06:28:47.836Z,98.80
2018-01-20T06:31:16.013Z,98.80
2018-01-20T06:33:44.565Z,98.80
2018-01-20T06:36:12.405Z,98.90
2018-01-20T06:38:41.511Z,99.10
2018-01-20T06:41:09.424Z,99.10
2018-01-20T06:43:37.567Z,99.10
2018-01-20T06:46:05.516Z,99.00
2018-01-20T06:48:33.319Z,98.60
2018-01-20T06:51:01.128Z,98.20
2018-01-20T06:53:29.832Z,97.80
2018-01-20T06:55:57.686Z,97.70
2018-01-20T06:58:26.405Z,97.80
2018-01-20T07:00:54.653Z,97.80
2018-01-20T07:03:23.713Z,97.80
2018-01-20T07:05:51.749Z,97.80
2018-01-20T07:08:19.952Z,97.70
2018-01-20T07:10:48.090Z,97.60
2018-01-20T07:13:16.095Z,97.40
2018-01-20T07:15:45.503Z,97.40
2018-01-20T07:18:13.468Z,97.30
2018-01-20T07:20:41.416Z,97.40
2018-01-20T07:23:09.688Z,97.60
2018-01-20T07:25:37.786Z,97.80
2018-01-20T07:28:05.717Z,97.70
2018-01-20T07:30:33.713Z,97.60
2018-01-20T07:33:01.575Z,97.60
2018-01-20T07:35:29.411Z,97.60
2018-01-20T07:37:57.415Z,97.40
2018-01-20T07:40:25.680Z,96.90
2018-01-20T07:42:53.743Z,96.90
2018-01-20T07:45:21.762Z,96.80
2018-01-20T07:47:49.715Z,96.80
2018-01-20T07:50:17.777Z,96.70
2018-01-20T07:52:45.680Z,96.30
2018-01-20T07:55:14.647Z,96.20
2018-01-20T07:57:43.375Z,95.80
2018-01-20T08:00:12.152Z,95.40
2018-01-20T08:02:40.695Z,95.40
2018-01-20T08:05:11.892Z,95.40
2018-01-20T08:07:40.335Z,95.60
2018-01-20T08:10:08.667Z,96.00
2018-01-20T08:12:39.805Z,95.90
2018-01-20T08:15:10.563Z,95.90
2018-01-20T08:17:41.503Z,95.80
2018-01-20T08:20:11.915Z,95.90
2018-01-20T08:22:41.271Z,95.90
2018-01-20T08:25:13.061Z,95.90
2018-01-20T08:27:41.256Z,95.70
2018-01-20T08:30:16.114Z,95.60
2018-01-20T08:32:46.734Z,95.60
2018-01-20T08:35:17.238Z,95.30
2018-01-20T08:37:52.179Z,95.20
2018-01-20T08:40:22.120Z,95.40
2018-01-20T08:42:50.105Z,95.40
2018-01-20T08:45:20.122Z,95.20
2018-01-20T08:47:52.307Z,94.90
2018-01-20T08:50:24.553Z,94.40
2018-01-20T08:52:52.766Z,94.40
2018-01-20T08:55:22.752Z,94.30
2018-01-20T08:57:52.403Z,94.20
2018-01-20T09:00:23.547Z,94.30
2018-01-20T09:02:57.343Z,94.20
2018-01-20T09:05:28.192Z,93.70
2018-01-20T09:08:02.837Z,93.50
2018-01-20T09:10:31.395Z,93.90
2018-01-20T09:13:02.335Z,93.40
2018-01-20T09:15:32.409Z,92.90
2018-01-20T09:18:00.477Z,92.80
2018-01-20T09:20:29.011Z,92.90
2018-01-20T09:22:58.024Z,92.40
2018-01-20T09:25:26.252Z,92.40
2018-01-20T09:27:55.131Z,91.80
2018-01-20T09:30:23.283Z,91.50
2018-01-20T09:32:51.494Z,90.90
2018-01-20T09:35:19.588Z,91.10
2018-01-20T09:37:48.285Z,90.60
2018-01-20T09:40:16.208Z,90.60
2018-01-20T09:42:44.231Z,89.60
2018-01-20T09:45:12.179Z,88.40
2018-01-20T09:47:40.840Z,86.90
2018-01-20T09:50:08.759Z,86.90
2018-01-20T09:52:36.708Z,88.00
2018-01-20T09:55:05.949Z,85.80
2018-01-20T09:57:33.852Z,85.70
2018-01-20T10:00:01.764Z,85.80
2018-01-20T10:02:30.075Z,85.60
2018-01-20T10:04:58.258Z,86.10
2018-01-20T10:07:27.184Z,87.00
2018-01-20T10:09:55.269Z,86.90
2018-01-20T10:12:24.529Z,84.50
2018-01-20T10:14:52.620Z,83.70
2018-01-20T10:17:20.859Z,83.90
2018-01-20T10:19:50.629Z,84.90
2018-01-20T10:22:19.783Z,84.80
2018-01-20T10:24:47.752Z,84.20
2018-01-20T10:27:15.632Z,82.70
2018-01-20T10:29:43.473Z,80.70
2018-01-20T10:32:11.281Z,81.40
2018-01-20T10:34:39.900Z,79.20
2018-01-20T10:37:07.798Z,79.10
2018-01-20T10:39:35.672Z,77.40
2018-01-20T10:42:03.630Z,76.30
2018-01-20T10:44:31.565Z,75.40
2018-01-20T10:46:59.472Z,74.80
2018-01-20T10:49:27.370Z,72.90
2018-01-20T10:51:56.085Z,73.70
2018-01-20T10:54:23.952Z,73.70
2018-01-20T10:56:51.836Z,75.60
2018-01-20T10:59:19.928Z,74.80
2018-01-20T11:01:47.827Z,75.40
2018-01-20T11:04:16.545Z,72.90
2018-01-20T11:06:44.600Z,72.80
2018-01-20T11:09:12.598Z,70.60
2018-01-20T11:11:40.517Z,69.30
2018-01-20T11:14:09.132Z,68.00
2018-01-20T11:16:37.047Z,67.90
2018-01-20T11:19:04.970Z,66.30
2018-01-20T11:21:32.829Z,65.70
2018-01-20T11:24:00.934Z,65.00
2018-01-20T11:26:28.746Z,63.20
2018-01-20T11:28:56.641Z,64.90
2018-01-20T11:31:24.478Z,65.90
2018-01-20T11:33:53.508Z,62.90
2018-01-20T11:36:21.569Z,62.80
2018-01-20T11:38:50.788Z,60.30
2018-01-20T11:41:19.161Z,60.00
2018-01-20T11:43:47.740Z,59.30
2018-01-20T11:46:15.593Z,60.60
2018-01-20T11:48:43.413Z,60.90
2018-01-20T11:51:11.355Z,59.10
2018-01-20T11:53:39.447Z,57.60
2018-01-20T11:56:08.574Z,56.40
2018-01-20T11:58:36.474Z,56.30
2018-01-20T12:01:04.373Z,57.50
2018-01-20T12:03:32.359Z,57.50
2018-01-20T12:06:00.325Z,57.60
2018-01-20T12:08:28.147Z,57.00
2018-01-20T12:10:55.939Z,56.30
2018-01-20T12:13:23.848Z,55.80
2018-01-20T12:15:52.476Z,55.70
2018-01-20T12:18:20.317Z,56.00
2018-01-20T12:20:48.968Z,55.30
2018-01-20T12:23:16.917Z,55.30
2018-01-20T12:25:44.829Z,54.90
2018-01-20T12:28:13.656Z,54.40
2018-01-20T12:30:41.550Z,54.40
2018-01-20T12:33:09.436Z,54.70
2018-01-20T12:35:37.424Z,55.00
2018-01-20T12:38:06.059Z,54.40
2018-01-20T12:40:33.933Z,54.40
2018-01-20T12:43:02.033Z,54.70
2018-01-20T12:45:29.953Z,54.30
2018-01-20T12:47:57.904Z,55.00
2018-01-20T12:50:25.843Z,53.70
2018-01-20T12:52:53.700Z,53.40
2018-01-20T12:55:21.557Z,52.80
2018-01-20T12:57:49.461Z,52.60
2018-01-20T13:00:18.091Z,52.20
2018-01-20T13:02:45.901Z,52.20
2018-01-20T13:05:14.571Z,51.50
2018-01-20T13:07:42.422Z,51.40
2018-01-20T13:10:10.219Z,51.30
2018-01-20T13:12:38.070Z,51.70
2018-01-20T13:15:06.004Z,51.50
2018-01-20T13:17:33.787Z,51.30
2018-01-20T13:20:01.766Z,51.10
2018-01-20T13:22:29.653Z,51.10
2018-01-20T13:24:58.253Z,51.30
2018-01-20T13:27:26.904Z,50.90
2018-01-20T13:29:54.812Z,50.80
2018-01-20T13:32:22.674Z,50.90
2018-01-20T13:34:51.439Z,51.90
2018-01-20T13:37:19.292Z,51.90
2018-01-20T13:39:47.159Z,51.60
2018-01-20T13:42:15.144Z,51.80
2018-01-20T13:44:43.975Z,52.40
2018-01-20T13:47:11.978Z,52.30
2018-01-20T13:49:39.947Z,52.70
2018-01-20T13:52:07.721Z,52.80
2018-01-20T13:54:35.629Z,52.80
2018-01-20T13:57:04.244Z,52.90
2018-01-20T13:59:32.091Z,52.80
2018-01-20T14:01:59.998Z,52.70
2018-01-20T14:04:27.860Z,52.80
2018-01-20T14:06:55.784Z,53.00
2018-01-20T14:09:23.664Z,53.50
2018-01-20T14:11:51.627Z,53.60
2018-01-20T14:14:19.553Z,54.00
2018-01-20T14:16:47.351Z,54.00
2018-01-20T14:19:16.033Z,54.30
2018-01-20T14:21:44.656Z,54.70
2018-01-20T14:24:12.472Z,54.60
2018-01-20T14:26:41.152Z,55.20
2018-01-20T14:29:09.003Z,54.90
2018-01-20T14:31:36.846Z,55.20
2018-01-20T14:34:04.744Z,56.10
2018-01-20T14:36:32.555Z,55.80
2018-01-20T14:39:00.410Z,56.40
2018-01-20T14:41:29.162Z,56.50
2018-01-20T14:43:57.033Z,56.40
2018-01-20T14:46:24.960Z,56.90
2018-01-20T14:48:52.878Z,57.40
2018-01-20T14:51:20.732Z,57.90
2018-01-20T14:53:48.640Z,58.40
2018-01-20T14:56:16.504Z,58.80
2018-01-20T14:58:44.400Z,59.20
2018-01-20T15:01:12.189Z,59.90
2018-01-20T15:03:40.097Z,60.30
2018-01-20T15:06:08.760Z,61.50
2018-01-20T15:08:36.643Z,61.50
2018-01-20T15:11:05.358Z,62.80
2018-01-20T15:13:33.147Z,62.70
2018-01-20T15:16:01.028Z,63.20
2018-01-20T15:18:28.901Z,63.80
2018-01-20T15:20:57.197Z,65.10
2018-01-20T15:23:26.706Z,65.70
2018-01-20T15:25:54.681Z,67.50
2018-01-20T15:28:22.601Z,67.30
2018-01-20T15:30:50.411Z,67.40
2018-01-20T15:33:19.193Z,68.30
2018-01-20T15:35:47.967Z,68.20
2018-01-20T15:38:16.020Z,69.40
2018-01-20T15:40:43.901Z,70.80
2018-01-20T15:43:11.831Z,71.00
2018-01-20T15:45:39.728Z,71.70
2018-01-20T15:48:07.609Z,72.90
2018-01-20T15:50:35.468Z,73.50
2018-01-20T15:53:03.388Z,74.00
2018-01-20T15:55:31.272Z,74.50
2018-01-20T15:57:59.140Z,75.20
2018-01-20T16:00:26.995Z,76.20
2018-01-20T16:02:54.954Z,77.20
2018-01-20T16:05:22.755Z,77.80
2018-01-20T16:07:50.755Z,78.50
2018-01-20T16:10:18.861Z,79.10
2018-01-20T16:12:46.717Z,79.30
2018-01-20T16:15:15.370Z,80.40
2018-01-20T16:17:44.098Z,81.50
2018-01-20T16:20:11.936Z,81.40
2018-01-20T16:22:39.807Z,83.40
2018-01-20T16:25:07.669Z,83.40
2018-01-20T16:27:35.562Z,84.20
2018-01-20T16:30:04.136Z,85.00
2018-01-20T16:32:32.800Z,85.60
2018-01-20T16:35:00.667Z,85.60
2018-01-20T16:37:28.619Z,86.60
2018-01-20T16:39:56.593Z,87.20
2018-01-20T16:42:24.460Z,88.80
2018-01-20T16:44:52.396Z,90.20
2018-01-20T16:47:20.331Z,90.50
2018-01-20T16:49:48.988Z,91.30
2018-01-20T16:52:16.799Z,91.30
2018-01-20T16:54:44.756Z,91.80
2018-01-20T16:57:12.789Z,92.30
2018-01-20T16:59:40.870Z,92.40
2018-01-20T17:02:08.756Z,92.50
2018-01-20T17:04:37.357Z,93.00
2018-01-20T17:07:05.987Z,93.00
2018-01-20T17:09:33.973Z,93.00
2018-01-20T17:12:01.895Z,93.10
2018-01-20T17:14:29.882Z,93.20
2018-01-20T17:16:57.880Z,93.40
2018-01-20T17:19:25.795Z,94.00
2018-01-20T17:21:54.581Z,93.60
2018-01-20T17:24:22.608Z,93.60
2018-01-20T17:26:50.617Z,93.10
2018-01-20T17:29:18.750Z,92.10
2018-01-20T17:31:46.772Z,91.90
2018-01-20T17:34:14.695Z,91.50
2018-01-20T17:36:42.660Z,91.30
2018-01-20T17:39:10.720Z,91.40
2018-01-20T17:41:38.976Z,91.90
2018-01-20T17:44:06.846Z,91.90
2018-01-20T17:46:35.100Z,91.80
2018-01-20T17:49:03.171Z,92.10
2018-01-20T17:51:31.185Z,92.10
2018-01-20T17:53:59.422Z,92.10
2018-01-20T17:56:27.538Z,92.30
2018-01-20T17:58:55.939Z,92.50
2018-01-20T18:01:24.773Z,92.90
2018-01-20T18:03:52.646Z,92.90
2018-01-20T18:06:20.624Z,92.90
2018-01-20T18:08:50.332Z,93.00
2018-01-20T18:11:20.225Z,92.90
2018-01-20T18:13:50.190Z,92.90
2018-01-20T18:16:18.200Z,97.10
2018-01-20T18:18:47.002Z,98.00
2018-01-20T18:21:16.918Z,95.80
2018-01-20T18:23:46.777Z,94.80
2018-01-20T18:26:16.093Z,93.90
2018-01-20T18:28:45.809Z,93.50
2018-01-20T18:31:15.677Z,93.30
2018-01-20T18:33:44.334Z,93.30
2018-01-20T18:36:13.622Z,93.20
2018-01-20T18:38:43.306Z,93.20
2018-01-20T18:41:12.184Z,93.50
2018-01-20T18:43:40.255Z,93.50
2018-01-20T18:46:10.751Z,93.30
2018-01-20T18:48:41.794Z,93.10
2018-01-20T18:51:13.730Z,93.10
2018-01-20T18:53:41.796Z,93.40
2018-01-20T18:56:15.596Z,93.80
2018-01-20T19:19:47.469Z,93.70
2018-01-20T19:22:15.299Z,94.00
2018-01-20T19:24:43.198Z,94.30
2018-01-20T19:27:11.347Z,94.50
2018-01-20T19:29:39.373Z,94.90
2018-01-20T19:32:07.272Z,95.10
2018-01-20T19:34:38.325Z,95.20
2018-01-20T19:37:07.748Z,95.30
2018-01-20T19:39:36.130Z,96.10
2018-01-20T19:42:04.001Z,95.80
2018-01-20T19:44:32.948Z,95.70
2018-01-20T19:47:00.825Z,95.30
2018-01-20T19:49:28.842Z,95.10
2018-01-20T19:51:57.036Z,95.10
2018-01-20T19:54:24.950Z,95.30
2018-01-20T19:56:52.841Z,95.40
2018-01-20T19:59:21.694Z,95.80
2018-01-20T20:01:49.653Z,95.80
2018-01-20T20:04:18.820Z,96.40
2018-01-20T20:06:47.220Z,96.10
2018-01-20T20:09:15.809Z,96.10
2018-01-20T20:11:43.853Z,96.00
2018-01-20T20:14:11.809Z,96.00
2018-01-20T20:16:40.480Z,97.90
2018-01-20T20:19:08.531Z,98.90
2018-01-20T20:21:40.802Z,98.50
2018-01-20T20:24:10.389Z,98.60
2018-01-20T20:26:39.953Z,97.10
2018-01-20T20:29:11.193Z,96.10
2018-01-20T20:31:41.683Z,96.10
2018-01-20T20:34:09.653Z,96.00
2018-01-20T20:36:37.678Z,95.90
2018-01-20T20:39:05.876Z,95.80
2018-01-20T20:41:35.085Z,95.90
2018-01-20T20:44:06.040Z,96.00
2018-01-20T20:46:33.852Z,96.00
2018-01-20T20:49:01.724Z,96.40
2018-01-20T20:51:30.716Z,96.80
2018-01-20T20:53:58.806Z,97.30
2018-01-20T20:56:27.558Z,98.50
2018-01-20T20:58:56.052Z,98.20
2018-01-20T21:01:24.368Z,98.70
2018-01-20T21:03:53.106Z,99.30
2018-01-20T21:06:21.076Z,99.30
2018-01-20T21:08:49.460Z,99.60
2018-01-20T21:11:17.840Z,99.80
2018-01-20T21:13:45.706Z,99.60
2018-01-20T21:16:13.669Z,99.70
2018-01-20T21:18:41.841Z,99.90
2018-01-20T21:21:09.738Z,99.90
2018-01-20T21:23:37.688Z,99.90
2018-01-20T21:26:05.555Z,99.90
2018-01-20T21:28:33.421Z,99.90
2018-01-20T21:31:01.390Z,99.90
2018-01-20T21:33:29.361Z,99.90
2018-01-20T21:35:57.353Z,99.90
2018-01-20T21:38:26.117Z,99.90
2018-01-20T21:40:53.985Z,99.90
2018-01-20T21:43:21.851Z,99.90
2018-01-20T21:45:49.812Z,99.90
2018-01-20T21:48:17.645Z,99.90
2018-01-20T21:50:45.574Z,99.90
2018-01-20T21:53:13.522Z,99.90
2018-01-20T21:55:41.494Z,99.90
2018-01-20T21:58:09.667Z,99.90
2018-01-20T22:00:37.734Z,99.90
2018-01-20T22:03:05.606Z,99.90
2018-01-20T22:05:33.471Z,99.90
2018-01-20T22:08:01.526Z,99.90
2018-01-20T22:10:29.574Z,99.90
2018-01-20T22:12:57.593Z,99.90
2018-01-20T22:15:25.555Z,99.90
2018-01-20T22:17:53.607Z,99.90
2018-01-20T22:20:21.507Z,99.90
2018-01-20T22:22:49.574Z,99.90
2018-01-20T22:25:17.552Z,99.90
2018-01-20T22:27:45.419Z,99.90
2018-01-20T22:30:13.371Z,99.90
2018-01-20T22:32:41.239Z,99.90
2018-01-20T22:35:09.083Z,99.90
2018-01-20T22:37:37.782Z,99.90
2018-01-20T22:40:05.524Z,99.90
2018-01-20T22:42:33.403Z,99.90
2018-01-20T22:45:01.307Z,99.90
2018-01-20T22:47:29.257Z,99.90
2018-01-20T22:49:57.174Z,99.90
2018-01-20T22:52:25.114Z,99.90
2018-01-20T22:54:54.096Z,99.90
2018-01-20T22:57:22.118Z,99.90
2018-01-20T22:59:50.240Z,99.90
2018-01-20T23:02:18.442Z,99.90
2018-01-20T23:04:47.084Z,99.90
2018-01-20T23:07:14.971Z,99.90
2018-01-20T23:09:43.124Z,99.90
2018-01-20T23:12:10.976Z,99.90
2018-01-20T23:14:38.929Z,99.90
2018-01-20T23:17:06.838Z,99.90
2018-01-20T23:19:34.658Z,99.90
2018-01-20T23:22:02.521Z,99.90
2018-01-20T23:24:30.402Z,99.90
2018-01-20T23:26:58.366Z,99.90
2018-01-20T23:29:26.903Z,99.90
2018-01-20T23:31:54.718Z,99.90
2018-01-20T23:34:22.716Z,99.90
2018-01-20T23:36:50.688Z,99.90
2018-01-20T23:39:18.730Z,99.90
2018-01-20T23:41:46.692Z,99.90
2018-01-20T23:44:14.594Z,99.90
2018-01-20T23:46:42.487Z,99.90
2018-01-20T23:49:10.334Z,99.90
2018-01-20T23:51:38.311Z,99.90
2018-01-20T23:54:06.162Z,99.90
2018-01-20T23:56:34.130Z,99.90
2018-01-20T23:59:02.204Z,99.70
